Pagrindinis puslapis
METAR-TAF:

METAR-TAF

Oro uostai :

Šiovdė, Švedija

platuma: 58-27N, ilguma: 013-58E, Aukštis: 98 m

Dabartinis oras

Ataskaita buvo paskelbta 28 minutes, ne 00:50 UTC
Vėjas 3 kt iš Rytų/Pietryčių
Temperatūra 0°C
Drėgmė 93%
Slėgis 997 hPa
Matomumas 10 km arba daugiau

METAR: ESGR 250050Z AUTO 12003KT 9999 BKN042/// OVC120/// M00/M01 Q0997

Laikas: 02:18 (01:18 UTC)


TAF: trūkstamas

Orai ataskaitas ir orų prognozės (METAR, TAF).

turimą stotys yra geltonos ir raudonos taškus žemėlapyje.

Perkelti pele per norėdami pamatyti stoties vardą.

Tada spustelėkite, norėdami matyti oro stebėjimo ir prognozės.

Norėdami pakeisti žemėlapį: spustelėkite ant žalios mygtukų su juodo kryžiaus žemyn,; žalią mygtuką su brūkšneliu, jei norite nutolinti; arba žalių rodyklių gretimoms žemėlapius.


METAR-TAF: